createdAt,value
2017-11-20T00:02:07.944Z,101271.27
2017-11-20T00:04:39.563Z,101280.86
2017-11-20T00:07:10.874Z,101280.51
2017-11-20T00:09:42.181Z,101283.07
2017-11-20T00:12:13.920Z,101276.59
2017-11-20T00:14:45.219Z,101274.78
2017-11-20T00:17:16.554Z,101268.61
2017-11-20T00:19:48.163Z,101265.02
2017-11-20T00:22:19.467Z,101269.33
2017-11-20T00:24:51.073Z,101271.93
2017-11-20T00:27:22.469Z,101270.98
2017-11-20T00:29:53.956Z,101271.88
2017-11-20T00:32:25.602Z,101260.94
2017-11-20T00:34:56.943Z,101261.42
2017-11-20T00:37:28.448Z,101252.25
2017-11-20T00:40:00.050Z,101255.69
2017-11-20T00:42:31.358Z,101250.95
2017-11-20T00:45:04.306Z,101250.52
2017-11-20T00:47:36.458Z,101243.13
2017-11-20T00:50:07.781Z,101255.77
2017-11-20T00:52:40.328Z,101243.60
2017-11-20T00:55:11.695Z,101245.34
2017-11-20T00:57:43.306Z,101249.73
2017-11-20T01:00:14.805Z,101260.63
2017-11-20T01:02:46.117Z,101263.23
2017-11-20T01:05:17.970Z,101263.32
2017-11-20T01:07:49.273Z,101260.41
2017-11-20T01:10:20.761Z,101257.96
2017-11-20T01:12:52.917Z,101256.27
2017-11-20T01:15:24.296Z,101256.70
2017-11-20T01:17:55.875Z,101253.66
2017-11-20T01:20:27.285Z,101254.97
2017-11-20T01:22:58.609Z,101248.05
2017-11-20T01:25:30.270Z,101251.57
2017-11-20T01:28:03.633Z,101257.17
2017-11-20T01:30:34.928Z,101258.08
2017-11-20T01:33:06.665Z,101271.11
2017-11-20T01:35:38.479Z,101270.75
2017-11-20T01:38:09.814Z,101269.41
2017-11-20T01:40:41.440Z,101273.36
2017-11-20T01:43:12.758Z,101269.38
2017-11-20T01:45:44.068Z,101271.51
2017-11-20T01:48:15.672Z,101257.66
2017-11-20T01:50:46.972Z,101262.08
2017-11-20T01:53:18.605Z,101256.90
2017-11-20T01:55:50.409Z,101260.02
2017-11-20T01:58:21.774Z,101255.71
2017-11-20T02:00:53.426Z,101259.23
2017-11-20T02:03:24.837Z,101255.39
2017-11-20T02:05:56.145Z,101252.87
2017-11-20T02:08:27.829Z,101257.64
2017-11-20T02:10:59.128Z,101267.23
2017-11-20T02:13:31.036Z,101269.40
2017-11-20T02:16:02.804Z,101272.48
2017-11-20T02:18:34.221Z,101272.55
2017-11-20T02:21:05.958Z,101265.75
2017-11-20T02:23:37.255Z,101271.10
2017-11-20T02:26:08.735Z,101268.53
2017-11-20T02:28:40.461Z,101270.87
2017-11-20T02:31:11.797Z,101270.91
2017-11-20T02:33:43.385Z,101270.52
2017-11-20T02:36:14.727Z,101271.88
2017-11-20T02:38:46.065Z,101274.52
2017-11-20T02:41:17.724Z,101266.34
2017-11-20T02:43:49.401Z,101273.02
2017-11-20T02:46:20.767Z,101280.78
2017-11-20T02:48:52.695Z,101274.37
2017-11-20T02:51:24.283Z,101277.06
2017-11-20T02:53:55.916Z,101276.73
2017-11-20T02:56:27.869Z,101279.85
2017-11-20T02:58:59.285Z,101286.06
2017-11-20T03:01:33.452Z,101279.22
2017-11-20T03:04:05.725Z,101274.10
2017-11-20T03:06:37.321Z,101282.80
2017-11-20T03:09:08.654Z,101273.64
2017-11-20T03:11:39.985Z,101259.75
2017-11-20T03:14:11.598Z,101258.02
2017-11-20T03:16:42.893Z,101260.61
2017-11-20T03:19:14.306Z,101252.41
2017-11-20T03:21:45.936Z,101258.07
2017-11-20T03:24:17.308Z,101262.80
2017-11-20T03:26:49.785Z,101264.56
2017-11-20T03:29:21.263Z,101260.20
2017-11-20T03:31:52.582Z,101262.38
2017-11-20T03:34:23.910Z,101264.59
2017-11-20T03:36:55.936Z,101261.94
2017-11-20T03:39:28.894Z,101263.67
2017-11-20T03:42:00.744Z,101265.00
2017-11-20T03:44:33.532Z,101265.03
2017-11-20T03:47:05.878Z,101268.93
2017-11-20T03:49:37.184Z,101264.63
2017-11-20T03:52:08.813Z,101266.01
2017-11-20T03:54:41.072Z,101256.55
2017-11-20T03:57:12.669Z,101255.75
2017-11-20T03:59:44.178Z,101260.52
2017-11-20T04:02:15.484Z,101255.78
2017-11-20T04:04:46.784Z,101254.91
2017-11-20T04:07:18.242Z,101263.63
2017-11-20T04:09:50.040Z,101259.29
2017-11-20T04:12:21.372Z,101260.64
2017-11-20T04:14:52.980Z,101270.17
2017-11-20T04:17:24.270Z,101268.88
2017-11-20T04:19:55.573Z,101265.81
2017-11-20T04:22:27.224Z,101265.33
2017-11-20T04:24:58.545Z,101267.09
2017-11-20T04:27:31.029Z,101267.11
2017-11-20T04:30:04.307Z,101258.88
2017-11-20T04:32:36.061Z,101257.64
2017-11-20T04:35:07.562Z,101255.95
2017-11-20T04:37:43.969Z,101258.55
2017-11-20T04:40:15.407Z,101258.06
2017-11-20T04:42:47.024Z,101250.33
2017-11-20T04:45:18.340Z,101244.70
2017-11-20T04:47:49.647Z,101243.83
2017-11-20T04:50:21.003Z,101254.15
2017-11-20T04:52:52.329Z,101248.52
2017-11-20T04:55:23.953Z,101252.01
2017-11-20T04:57:56.656Z,101253.30
2017-11-20T05:00:29.066Z,101252.01
2017-11-20T05:03:00.375Z,101246.81
2017-11-20T05:05:32.496Z,101249.36
2017-11-20T05:08:05.312Z,101257.61
2017-11-20T05:10:36.744Z,101257.61
2017-11-20T05:13:08.354Z,101251.58
2017-11-20T05:15:39.774Z,101252.49
2017-11-20T05:18:11.485Z,101246.88
2017-11-20T05:20:42.834Z,101248.62
2017-11-20T05:23:14.116Z,101248.61
2017-11-20T05:25:46.919Z,101252.98
2017-11-20T05:28:18.220Z,101249.45
2017-11-20T05:30:49.880Z,101259.31
2017-11-20T05:33:21.185Z,101250.61
2017-11-20T05:35:52.900Z,101247.05
2017-11-20T05:38:24.512Z,101251.34
2017-11-20T05:40:55.836Z,101246.16
2017-11-20T05:43:35.196Z,101255.28
2017-11-20T05:46:07.794Z,101252.66
2017-11-20T05:48:39.231Z,101256.10
2017-11-20T05:51:10.542Z,101250.82
2017-11-20T05:53:42.165Z,101254.28
2017-11-20T05:56:13.470Z,101262.98
2017-11-20T05:58:44.785Z,101255.64
2017-11-20T06:01:16.401Z,101260.02
2017-11-20T06:03:47.709Z,101262.27
2017-11-20T06:06:19.057Z,101273.09
2017-11-20T06:08:52.051Z,101274.80
2017-11-20T06:11:23.401Z,101282.59
2017-11-20T06:13:55.044Z,101283.02
2017-11-20T06:16:26.372Z,101277.37
2017-11-20T06:18:58.319Z,101275.16
2017-11-20T06:21:29.966Z,101274.27
2017-11-20T06:24:02.509Z,101283.31
2017-11-20T06:26:34.377Z,101280.19
2017-11-20T06:29:06.049Z,101280.25
2017-11-20T06:31:37.714Z,101278.98
2017-11-20T06:34:09.062Z,101269.91
2017-11-20T06:36:40.403Z,101273.38
2017-11-20T06:39:12.033Z,101268.15
2017-11-20T06:41:43.370Z,101271.17
2017-11-20T06:44:14.715Z,101269.41
2017-11-20T06:46:46.526Z,101265.09
2017-11-20T06:49:17.900Z,101267.20
2017-11-20T06:51:49.561Z,101268.91
2017-11-20T06:54:20.965Z,101271.41
2017-11-20T06:56:52.335Z,101286.06
2017-11-20T06:59:24.072Z,101289.08
2017-11-20T07:01:55.480Z,101289.47
2017-11-20T07:04:26.913Z,101290.81
2017-11-20T07:06:58.553Z,101300.75
2017-11-20T07:09:30.172Z,101301.09
2017-11-20T07:12:04.100Z,101302.30
2017-11-20T07:14:38.263Z,101301.44
2017-11-20T07:17:09.662Z,101297.94
2017-11-20T07:19:41.297Z,101300.97
2017-11-20T07:22:12.684Z,101306.15
2017-11-20T07:24:44.056Z,101298.28
2017-11-20T07:27:25.342Z,101300.89
2017-11-20T07:30:39.497Z,101311.20
2017-11-20T07:33:11.205Z,101305.06
2017-11-20T07:35:42.790Z,101302.00
2017-11-20T07:38:22.043Z,101303.42
2017-11-20T07:41:07.013Z,101294.75
2017-11-20T07:43:39.711Z,101282.92
2017-11-20T07:46:11.468Z,101281.16
2017-11-20T07:48:42.803Z,101279.42
2017-11-20T07:51:14.157Z,101281.13
2017-11-20T07:53:45.981Z,101276.31
2017-11-20T07:56:17.378Z,101279.79
2017-11-20T07:58:50.580Z,101275.85
2017-11-20T08:01:22.241Z,101284.53
2017-11-20T08:03:53.647Z,101277.98
2017-11-20T08:06:25.011Z,101289.67
2017-11-20T08:08:56.699Z,101292.20
2017-11-20T08:11:28.470Z,101290.84
2017-11-20T08:13:59.823Z,101296.64
2017-11-20T08:16:31.483Z,101300.91
2017-11-20T08:19:03.568Z,101303.52
2017-11-20T08:21:35.342Z,101308.98
2017-11-20T08:24:07.190Z,101308.45
2017-11-20T08:26:38.556Z,101297.17
2017-11-20T08:29:09.985Z,101301.98
2017-11-20T08:31:43.536Z,101310.95
2017-11-20T08:34:14.944Z,101313.38
2017-11-20T08:36:46.649Z,101308.11
2017-11-20T08:39:18.451Z,101308.61
2017-11-20T08:41:51.183Z,101308.07
2017-11-20T08:44:22.633Z,101312.27
2017-11-20T08:46:54.588Z,101315.98
2017-11-20T08:51:54.789Z,101311.77
2017-11-20T08:54:26.451Z,101314.70
2017-11-20T08:56:57.837Z,101306.09
2017-11-20T08:59:30.128Z,101306.53
2017-11-20T09:02:01.637Z,101311.66
2017-11-20T09:04:33.906Z,101313.63
2017-11-20T09:07:05.671Z,101314.77
2017-11-20T09:09:37.232Z,101322.63
2017-11-20T09:12:09.701Z,101317.77
2017-11-20T09:14:41.078Z,101314.30
2017-11-20T09:17:12.503Z,101313.43
2017-11-20T09:19:44.354Z,101309.09
2017-11-20T09:22:15.723Z,101299.53
2017-11-20T09:24:47.627Z,101303.79
2017-11-20T09:27:19.364Z,101294.63
2017-11-20T09:29:50.757Z,101295.28
2017-11-20T09:32:22.393Z,101297.84
2017-11-20T09:34:53.821Z,101295.97
2017-11-20T09:37:25.273Z,101302.63
2017-11-20T09:39:56.987Z,101299.66
2017-11-20T09:42:28.806Z,101299.05
2017-11-20T09:45:00.158Z,101304.58
2017-11-20T09:47:33.137Z,101295.05
2017-11-20T09:50:05.672Z,101298.02
2017-11-20T09:52:37.480Z,101299.62
2017-11-20T09:55:08.970Z,101294.45
2017-11-20T09:57:40.573Z,101285.92
2017-11-20T10:00:12.536Z,101286.67
2017-11-20T10:02:43.944Z,101286.05
2017-11-20T10:05:16.151Z,101280.95
2017-11-20T10:07:47.724Z,101281.37
2017-11-20T10:10:19.429Z,101269.10
2017-11-20T10:12:51.473Z,101274.61
2017-11-20T10:15:22.971Z,101266.11
2017-11-20T10:17:54.394Z,101262.23
2017-11-20T10:20:26.066Z,101262.77
2017-11-20T10:22:57.436Z,101276.69
2017-11-20T10:25:29.682Z,101271.77
2017-11-20T10:28:04.468Z,101260.02
2017-11-20T10:30:35.878Z,101255.28
2017-11-20T10:33:07.549Z,101251.75
2017-11-20T10:35:39.078Z,101247.50
2017-11-20T10:38:10.778Z,101234.16
2017-11-20T10:40:42.382Z,101234.60
2017-11-20T10:43:14.063Z,101225.12
2017-11-20T10:45:45.924Z,101228.17
2017-11-20T10:48:17.315Z,101217.88
2017-11-20T10:50:48.750Z,101202.72
2017-11-20T10:53:20.445Z,101208.99
2017-11-20T10:55:51.819Z,101203.66
2017-11-20T10:58:24.203Z,101187.96
2017-11-20T11:00:55.865Z,101173.01
2017-11-20T11:03:27.573Z,101169.42
2017-11-20T11:05:59.616Z,101169.59
2017-11-20T11:08:31.418Z,101168.61
2017-11-20T11:11:03.244Z,101172.58
2017-11-20T11:13:35.821Z,101166.70
2017-11-20T11:16:07.390Z,101163.98
2017-11-20T11:18:39.871Z,101158.49
2017-11-20T11:21:11.612Z,101161.33
2017-11-20T11:23:43.038Z,101156.75
2017-11-20T11:26:14.735Z,101156.16
2017-11-20T11:28:48.344Z,101141.57
2017-11-20T11:31:19.849Z,101144.67
2017-11-20T11:33:51.603Z,101136.84
2017-11-20T11:36:23.136Z,101128.69
2017-11-20T11:38:54.614Z,101120.31
2017-11-20T11:41:26.377Z,101122.00
2017-11-20T11:43:57.835Z,101106.38
2017-11-20T11:46:32.188Z,101104.31
2017-11-20T11:49:04.438Z,101094.48
2017-11-20T11:51:36.637Z,101097.97
2017-11-20T11:54:08.546Z,101090.95
2017-11-20T11:56:39.941Z,101089.31
2017-11-20T11:59:11.388Z,101089.16
2017-11-20T12:01:43.049Z,101078.38
2017-11-20T12:04:14.454Z,101085.67
2017-11-20T12:06:46.085Z,101099.81
2017-11-20T12:09:17.811Z,101095.89
2017-11-20T12:11:49.527Z,101089.09
2017-11-20T12:14:22.384Z,101083.16
2017-11-20T12:16:54.045Z,101085.39
2017-11-20T12:19:25.628Z,101086.20
2017-11-20T12:21:57.460Z,101083.51
2017-11-20T12:27:17.616Z,101085.17
2017-11-20T12:29:49.730Z,101087.09
2017-11-20T12:32:21.161Z,101078.61
2017-11-20T12:34:53.065Z,101083.61
2017-11-20T12:37:25.896Z,101075.95
2017-11-20T12:39:58.113Z,101067.91
2017-11-20T12:42:29.779Z,101051.20
2017-11-20T12:45:14.211Z,101048.11
2017-11-20T12:47:45.641Z,101051.09
2017-11-20T12:50:17.580Z,101045.55
2017-11-20T12:52:49.106Z,101045.94
2017-11-20T12:55:20.772Z,101044.95
2017-11-20T12:57:52.842Z,101040.48
2017-11-20T13:00:24.365Z,101039.50
2017-11-20T13:02:55.916Z,101038.69
2017-11-20T13:05:28.418Z,101033.27
2017-11-20T13:11:06.852Z,101017.02
2017-11-20T13:13:40.164Z,101017.00
2017-11-20T13:16:12.273Z,101011.88
2017-11-20T13:18:44.479Z,101017.13
2017-11-20T13:21:24.252Z,101009.98
2017-11-20T13:23:58.025Z,101008.23
2017-11-20T13:26:32.346Z,100997.86
2017-11-20T13:29:10.872Z,100996.81
2017-11-20T13:31:44.944Z,100993.77
2017-11-20T13:34:16.816Z,100987.94
2017-11-20T13:36:51.858Z,100995.05
2017-11-20T13:42:39.792Z,100991.05
2017-11-20T13:45:12.896Z,100995.42
2017-11-20T13:47:48.331Z,101002.38
2017-11-20T13:50:21.540Z,100997.35
2017-11-20T13:52:53.597Z,100995.84
2017-11-20T13:55:28.323Z,100991.30
2017-11-20T13:58:04.161Z,100981.40
2017-11-20T14:00:36.425Z,100978.10
2017-11-20T14:03:12.291Z,100975.25
2017-11-20T14:05:43.793Z,100971.44
2017-11-20T14:08:19.064Z,100964.66
2017-11-20T14:10:51.513Z,100966.47
2017-11-20T14:13:24.118Z,100962.48
2017-11-20T14:15:55.873Z,100955.91
2017-11-20T14:18:28.567Z,100950.38
2017-11-20T14:21:02.447Z,100944.41
2017-11-20T14:23:36.836Z,100943.14
2017-11-20T14:26:18.926Z,100940.59
2017-11-20T14:28:51.438Z,100940.16
2017-11-20T14:31:23.202Z,100938.16
2017-11-20T14:33:54.699Z,100930.33
2017-11-20T14:36:29.277Z,100923.81
2017-11-20T14:39:01.494Z,100919.95
2017-11-20T14:41:33.268Z,100907.41
2017-11-20T14:44:15.954Z,100906.16
2017-11-20T14:46:48.018Z,100911.01
2017-11-20T14:49:28.018Z,100914.59
2017-11-20T14:52:00.586Z,100907.20
2017-11-20T15:00:34.814Z,100904.66
2017-11-20T15:03:06.689Z,100905.69
2017-11-20T15:08:41.964Z,100898.10
2017-11-20T15:11:13.566Z,100889.14
2017-11-20T15:16:39.732Z,100880.67
2017-11-20T15:19:11.931Z,100877.70
2017-11-20T15:21:45.489Z,100875.09
2017-11-20T15:24:36.196Z,100867.31
2017-11-20T15:27:07.795Z,100858.37
2017-11-20T15:29:40.198Z,100856.80
2017-11-20T15:32:12.618Z,100861.09
2017-11-20T15:34:45.555Z,100850.45
2017-11-20T15:40:28.117Z,100847.84
2017-11-20T15:43:00.350Z,100842.20
2017-11-20T15:45:33.857Z,100839.27
2017-11-20T15:48:22.880Z,100836.23
2017-11-20T15:51:04.559Z,100834.42
2017-11-20T15:53:39.000Z,100838.73
2017-11-20T15:59:17.045Z,100821.47
2017-11-20T16:01:49.314Z,100823.30
2017-11-20T16:04:24.742Z,100818.16
2017-11-20T16:06:56.501Z,100814.35
2017-11-20T16:09:27.859Z,100806.49
2017-11-20T16:11:59.230Z,100812.13
2017-11-20T16:14:30.756Z,100806.59
2017-11-20T16:17:06.382Z,100802.30
2017-11-20T16:19:38.066Z,100798.78
2017-11-20T16:22:09.455Z,100799.70
2017-11-20T16:27:29.079Z,100794.71
2017-11-20T16:30:00.686Z,100803.40
2017-11-20T16:32:32.054Z,100796.39
2017-11-20T16:35:06.504Z,100790.31
2017-11-20T16:37:37.956Z,100804.81
2017-11-20T16:40:11.529Z,100790.97
2017-11-20T16:42:44.607Z,100786.20
2017-11-20T16:45:16.472Z,100782.72
2017-11-20T16:47:47.930Z,100777.02
2017-11-20T16:50:19.298Z,100767.09
2017-11-20T16:52:51.233Z,100757.53
2017-11-20T16:55:22.902Z,100769.32
2017-11-20T16:58:10.806Z,100760.68
2017-11-20T17:00:49.846Z,100761.56
2017-11-20T17:03:21.364Z,100759.81
2017-11-20T17:05:53.159Z,100758.34
2017-11-20T17:08:24.537Z,100757.16
2017-11-20T17:10:57.000Z,100758.50
2017-11-20T17:13:28.696Z,100752.00
2017-11-20T17:16:00.542Z,100757.69
2017-11-20T17:18:32.124Z,100745.11
2017-11-20T17:21:05.173Z,100752.50
2017-11-20T17:23:36.517Z,100750.27
2017-11-20T17:26:11.511Z,100742.84
2017-11-20T17:28:43.689Z,100735.83
2017-11-20T17:31:15.368Z,100749.23
2017-11-20T17:33:48.531Z,100737.94
2017-11-20T17:36:19.906Z,100734.83
2017-11-20T17:38:51.942Z,100728.70
2017-11-20T17:41:23.415Z,100735.66
2017-11-20T17:43:55.286Z,100733.00
2017-11-20T17:46:27.351Z,100734.61
2017-11-20T17:48:59.290Z,100724.61
2017-11-20T17:51:31.023Z,100712.41
2017-11-20T17:54:03.869Z,100717.56
2017-11-20T17:56:35.527Z,100713.66
2017-11-20T17:59:07.039Z,100706.62
2017-11-20T18:01:38.470Z,100709.62
2017-11-20T18:04:10.427Z,100698.39
2017-11-20T18:06:41.798Z,100696.21
2017-11-20T18:09:13.159Z,100683.18
2017-11-20T18:11:46.513Z,100686.55
2017-11-20T18:14:17.978Z,100686.47
2017-11-20T18:19:55.152Z,100683.75
2017-11-20T18:22:35.004Z,100695.85
2017-11-20T18:25:07.810Z,100691.13
2017-11-20T18:27:40.047Z,100681.44
2017-11-20T18:30:12.539Z,100680.52
2017-11-20T18:32:44.369Z,100689.20
2017-11-20T18:35:16.802Z,100688.71
2017-11-20T18:37:48.512Z,100676.05
2017-11-20T18:40:20.580Z,100685.59
2017-11-20T18:42:54.089Z,100682.44
2017-11-20T18:45:27.544Z,100681.89
2017-11-20T18:47:58.917Z,100675.41
2017-11-20T18:50:30.712Z,100682.88
2017-11-20T18:53:05.293Z,100684.67
2017-11-20T18:55:40.612Z,100677.30
2017-11-20T18:58:12.404Z,100679.02
2017-11-20T19:03:06.061Z,100672.07
2017-11-20T19:05:48.201Z,100663.28
2017-11-20T19:08:36.622Z,100668.85
2017-11-20T19:11:11.424Z,100673.57
2017-11-20T19:13:45.819Z,100666.48
2017-11-20T19:16:18.493Z,100656.42
2017-11-20T19:18:50.234Z,100661.45
2017-11-20T19:21:22.792Z,100667.15
2017-11-20T19:24:13.270Z,100667.52
2017-11-20T19:26:56.762Z,100663.98
2017-11-20T19:29:30.556Z,100673.92
2017-11-20T19:32:09.021Z,100673.41
2017-11-20T19:34:40.929Z,100674.59
2017-11-20T19:37:16.955Z,100664.54
2017-11-20T19:39:49.221Z,100664.47
2017-11-20T19:42:21.540Z,100665.69
2017-11-20T19:44:53.321Z,100666.58
2017-11-20T19:47:25.743Z,100665.62
2017-11-20T19:49:58.649Z,100662.53
2017-11-20T19:52:30.422Z,100654.48
2017-11-20T19:55:04.075Z,100653.55
2017-11-20T19:57:35.477Z,100652.48
2017-11-20T20:00:12.354Z,100664.52
2017-11-20T20:02:47.656Z,100672.71
2017-11-20T20:05:21.592Z,100669.55
2017-11-20T20:07:53.461Z,100652.88
2017-11-20T20:10:29.889Z,100656.63
2017-11-20T20:13:03.594Z,100656.06
2017-11-20T20:15:45.936Z,100656.41
2017-11-20T20:18:20.770Z,100653.23
2017-11-20T20:20:53.292Z,100658.69
2017-11-20T20:26:03.020Z,100661.67
2017-11-20T20:28:35.673Z,100654.69
2017-11-20T20:34:17.358Z,100652.09
2017-11-20T20:36:49.857Z,100650.62
2017-11-20T20:39:23.349Z,100643.66
2017-11-20T20:41:54.902Z,100649.69
2017-11-20T20:44:27.040Z,100643.52
2017-11-20T20:47:11.933Z,100639.55
2017-11-20T20:49:47.242Z,100642.57
2017-11-20T20:52:39.945Z,100645.20
2017-11-20T20:55:14.812Z,100650.41
2017-11-20T20:57:53.402Z,100656.97
2017-11-20T21:00:26.706Z,100645.70
2017-11-20T21:02:58.894Z,100641.42
2017-11-20T21:05:34.688Z,100633.16
2017-11-20T21:08:17.929Z,100629.95
2017-11-20T21:10:53.610Z,100615.62
2017-11-20T21:13:26.313Z,100609.86
2017-11-20T21:15:59.651Z,100605.81
2017-11-20T21:18:34.693Z,100603.61
2017-11-20T21:21:08.142Z,100592.73
2017-11-20T21:23:40.052Z,100594.91
2017-11-20T21:26:17.947Z,100586.16
2017-11-20T21:28:49.818Z,100584.41
2017-11-20T21:31:31.202Z,100578.74
2017-11-20T21:34:04.057Z,100578.65
2017-11-20T21:36:35.996Z,100584.25
2017-11-20T21:39:08.961Z,100575.02
2017-11-20T21:41:41.114Z,100584.83
2017-11-20T21:44:17.475Z,100572.11
2017-11-20T21:46:48.857Z,100579.39
2017-11-20T21:49:22.121Z,100578.89
2017-11-20T21:51:54.789Z,100569.16
2017-11-20T21:54:26.269Z,100553.11
2017-11-20T21:56:57.661Z,100540.05
2017-11-20T21:59:29.353Z,100547.02
2017-11-20T22:02:00.719Z,100549.36
2017-11-20T22:04:34.016Z,100551.03
2017-11-20T22:07:06.184Z,100557.55
2017-11-20T22:09:38.108Z,100577.72
2017-11-20T22:12:18.589Z,100582.92
2017-11-20T22:14:52.840Z,100578.12
2017-11-20T22:17:24.868Z,100593.76
2017-11-20T22:22:56.329Z,100607.53
2017-11-20T22:25:28.259Z,100607.88
2017-11-20T22:28:00.029Z,100596.00
2017-11-20T22:30:34.424Z,100588.32
2017-11-20T22:33:09.020Z,100587.89
2017-11-20T22:35:41.535Z,100589.05
2017-11-20T22:38:14.284Z,100586.72
2017-11-20T22:40:46.103Z,100583.20
2017-11-20T22:43:18.235Z,100570.79
2017-11-20T22:45:49.884Z,100566.62
2017-11-20T22:48:21.222Z,100560.44
2017-11-20T22:50:52.548Z,100559.22
2017-11-20T22:53:25.319Z,100567.92
2017-11-20T22:55:56.779Z,100575.27
2017-11-20T22:58:29.681Z,100581.83
2017-11-20T23:01:01.909Z,100588.87
2017-11-20T23:03:34.989Z,100589.77
2017-11-20T23:06:11.143Z,100604.98
2017-11-20T23:08:44.500Z,100608.83
2017-11-20T23:11:15.954Z,100613.02
2017-11-20T23:13:49.746Z,100604.67
2017-11-20T23:16:21.300Z,100601.97
2017-11-20T23:21:54.038Z,100592.48
2017-11-20T23:24:27.076Z,100598.14
2017-11-20T23:26:59.645Z,100609.75
2017-11-20T23:29:30.977Z,100603.57
2017-11-20T23:32:05.127Z,100596.51
2017-11-20T23:34:36.521Z,100590.75
2017-11-20T23:37:08.162Z,100591.61
2017-11-20T23:39:39.536Z,100610.50
2017-11-20T23:42:11.135Z,100600.23
2017-11-20T23:44:42.467Z,100592.37
2017-11-20T23:47:13.855Z,100602.05
2017-11-20T23:49:46.732Z,100602.60
2017-11-20T23:52:18.238Z,100597.08
2017-11-20T23:54:50.642Z,100596.63
2017-11-20T23:57:23.122Z,100596.58
2017-11-20T23:59:54.429Z,100591.78
